Terminal Aerodrome Forecast
Issued by NWS Wilmington, NC

Home | Current Version | Previous Version | Text Only | Print | Product List | Glossary On
Versions: 1 2 3 4 5 6 7 8 9 10 11 12 13 14 15 16
537
FTUS42 KILM 302323
TAFILM
TAF
KILM 302323Z 3100/3124 22011G15KT P6SM VCTS FEW030CB BKN050 BKN120
     FM310300 21005KT P6SM VCSH FEW050 SCT250
     FM310800 22006KT P6SM FEW030 BKN250
     FM311300 23010KT P6SM VCTS FEW025CB BKN050
     FM312200 20010KT P6SM FEW050 SCT250=

USA.gov is the U.S. government's official web portal to all federal, state and local government web resources and services.